Alligator Point, Florida
Current Conditions -  °F | °C
As of 1:53 PM on Friday 28 Nov 2014 (Local Time) from KTLH Reporting Station
Clear Clear  
Wind Chill: 55°   Ceiling: Unl
Heat Index: 55°   Visibility: 10mi
Dew Point: 22°   Wind: 9mph
Humidity: 28%   Direction: 60°ENE
Pressure: 30.32"   Gusts: NA
Location:  30.0223°N, 84.3911°W
Report Text: KTLH 281853Z 06008KT 10SM CLR 13/M06 A3032 RMK AO2 SLP267 T01281056 $
Loading
Personal Weather Stations






























Interactive Weather Map New forecast layout! Learn more

10-Day Weather Forecast

Advertisements
Track Severe Weather on mobile